createdAt,value
2022-11-29T00:01:05.630Z,15.05
2022-11-29T00:03:33.210Z,12.65
2022-11-29T00:06:11.799Z,14.18
2022-11-29T00:08:39.191Z,13.73
2022-11-29T00:11:13.643Z,14.98
2022-11-29T00:13:40.381Z,14.23
2022-11-29T00:16:10.755Z,14.57
2022-11-29T00:18:37.872Z,14.50
2022-11-29T00:21:08.327Z,15.07
2022-11-29T00:23:35.458Z,13.80
2022-11-29T00:26:08.197Z,13.68
2022-11-29T00:28:36.020Z,13.43
2022-11-29T00:31:32.559Z,13.65
2022-11-29T00:34:01.697Z,15.23
2022-11-29T00:36:28.883Z,13.40
2022-11-29T00:38:55.457Z,13.95
2022-11-29T00:41:22.110Z,14.52
2022-11-29T00:43:48.466Z,14.68
2022-11-29T00:46:15.199Z,14.85
2022-11-29T00:48:41.662Z,14.70
2022-11-29T00:51:08.387Z,13.48
2022-11-29T00:53:35.980Z,14.25
2022-11-29T00:56:03.658Z,14.52
2022-11-29T00:58:30.526Z,14.13
2022-11-29T01:00:57.030Z,14.00
2022-11-29T01:03:24.870Z,15.35
2022-11-29T01:09:38.028Z,15.13
2022-11-29T01:12:04.490Z,14.70
2022-11-29T01:14:30.957Z,14.27
2022-11-29T01:16:57.398Z,15.27
2022-11-29T01:19:23.801Z,13.98
2022-11-29T01:21:50.137Z,15.45
2022-11-29T01:24:16.446Z,14.95
2022-11-29T01:26:42.758Z,15.75
2022-11-29T01:29:13.016Z,15.40
2022-11-29T01:31:39.633Z,14.98
2022-11-29T01:34:07.179Z,15.25
2022-11-29T01:36:34.393Z,15.48
2022-11-29T01:39:02.169Z,14.27
2022-11-29T01:41:31.380Z,15.68
2022-11-29T01:44:04.556Z,14.90
2022-11-29T01:46:42.057Z,15.63
2022-11-29T01:49:18.653Z,16.23
2022-11-29T01:51:50.118Z,14.43
2022-11-29T01:54:17.479Z,16.25
2022-11-29T01:56:46.142Z,15.57
2022-11-29T01:59:15.590Z,14.55
2022-11-29T02:01:42.257Z,16.08
2022-11-29T02:04:09.304Z,16.35
2022-11-29T02:06:39.196Z,15.30
2022-11-29T02:09:15.655Z,14.88
2022-11-29T02:12:06.537Z,15.82
2022-11-29T02:15:05.962Z,16.33
2022-11-29T02:18:10.471Z,14.68
2022-11-29T02:21:03.225Z,14.80
2022-11-29T02:23:51.318Z,13.60
2022-11-29T02:26:45.702Z,15.10
2022-11-29T02:29:37.474Z,15.30
2022-11-29T02:32:25.176Z,15.55
2022-11-29T02:35:29.355Z,14.23
2022-11-29T02:38:07.749Z,13.10
2022-11-29T02:40:46.173Z,14.05
2022-11-29T02:43:40.674Z,15.73
2022-11-29T02:46:36.124Z,14.63
2022-11-29T02:49:27.123Z,13.95
2022-11-29T02:52:07.406Z,13.75
2022-11-29T02:54:50.056Z,14.98
2022-11-29T02:57:42.833Z,13.80
2022-11-29T03:00:13.787Z,14.05
2022-11-29T03:03:15.680Z,15.07
2022-11-29T03:05:45.029Z,15.05
2022-11-29T03:08:34.267Z,15.40
2022-11-29T03:11:12.385Z,15.98
2022-11-29T03:13:55.606Z,15.40
2022-11-29T03:16:42.554Z,15.90
2022-11-29T03:19:35.158Z,16.38
2022-11-29T03:22:22.486Z,15.35
2022-11-29T03:25:24.189Z,14.60
2022-11-29T03:28:11.075Z,14.30
2022-11-29T03:30:41.623Z,12.52
2022-11-29T03:33:30.527Z,13.43
2022-11-29T03:36:07.118Z,14.00
2022-11-29T03:38:41.842Z,14.77
2022-11-29T03:41:14.107Z,15.13
2022-11-29T03:43:55.704Z,14.18
2022-11-29T03:46:44.037Z,14.02
2022-11-29T03:49:21.817Z,13.73
2022-11-29T03:52:25.869Z,13.70
2022-11-29T03:55:30.117Z,13.82
2022-11-29T03:58:12.680Z,14.45
2022-11-29T04:00:55.129Z,13.73
2022-11-29T04:03:58.700Z,14.93
2022-11-29T04:06:53.173Z,13.90
2022-11-29T04:09:27.834Z,14.52
2022-11-29T04:12:12.878Z,13.60
2022-11-29T04:15:01.041Z,13.53
2022-11-29T04:17:58.493Z,13.85
2022-11-29T04:20:48.391Z,13.63
2022-11-29T04:23:36.677Z,14.07
2022-11-29T04:26:29.681Z,14.85
2022-11-29T04:29:01.561Z,12.70
2022-11-29T04:31:41.006Z,13.38
2022-11-29T04:34:45.064Z,14.02
2022-11-29T04:37:22.060Z,13.40
2022-11-29T04:40:21.463Z,13.07
2022-11-29T04:43:13.837Z,13.23
2022-11-29T04:46:17.259Z,12.20
2022-11-29T04:49:07.296Z,13.02
2022-11-29T04:52:15.110Z,13.00
2022-11-29T04:54:56.996Z,13.25
2022-11-29T04:57:44.060Z,13.30
2022-11-29T05:00:18.517Z,13.52
2022-11-29T05:02:58.425Z,12.15
2022-11-29T05:05:36.246Z,13.73
2022-11-29T05:08:20.790Z,11.50
2022-11-29T05:10:55.516Z,12.10
2022-11-29T05:13:40.172Z,12.05
2022-11-29T05:16:30.922Z,14.02
2022-11-29T05:19:28.111Z,12.98
2022-11-29T05:22:12.282Z,13.88
2022-11-29T05:24:53.017Z,12.75
2022-11-29T05:27:48.285Z,12.80
2022-11-29T05:30:18.327Z,13.15
2022-11-29T05:33:10.679Z,14.23
2022-11-29T05:35:44.888Z,15.07
2022-11-29T05:38:37.346Z,13.68
2022-11-29T05:41:21.753Z,14.75
2022-11-29T05:44:04.285Z,13.02
2022-11-29T05:46:49.385Z,13.45
2022-11-29T05:49:26.830Z,13.77
2022-11-29T05:51:59.186Z,13.98
2022-11-29T05:54:45.898Z,12.70
2022-11-29T05:57:42.835Z,13.63
2022-11-29T06:00:12.650Z,13.13
2022-11-29T06:03:03.515Z,13.55
2022-11-29T06:05:45.696Z,13.18
2022-11-29T06:08:14.700Z,14.35
2022-11-29T06:10:56.312Z,14.55
2022-11-29T06:13:57.288Z,13.98
2022-11-29T06:16:36.308Z,14.10
2022-11-29T06:19:37.628Z,14.68
2022-11-29T06:22:30.330Z,13.82
2022-11-29T06:25:30.581Z,14.40
2022-11-29T06:28:26.734Z,13.50
2022-11-29T06:31:01.973Z,13.88
2022-11-29T06:33:39.117Z,15.10
2022-11-29T06:37:04.167Z,15.02
2022-11-29T06:39:30.854Z,14.25
2022-11-29T06:41:57.175Z,14.82
2022-11-29T06:44:23.796Z,14.07
2022-11-29T06:47:06.287Z,13.48
2022-11-29T06:49:42.803Z,14.88
2022-11-29T06:52:34.541Z,15.70
2022-11-29T06:55:07.786Z,15.50
2022-11-29T06:57:40.321Z,16.40
2022-11-29T07:00:30.270Z,16.15
2022-11-29T07:03:25.586Z,17.17
2022-11-29T07:05:52.258Z,17.00
2022-11-29T07:08:22.034Z,16.90
2022-11-29T07:10:51.227Z,18.17
2022-11-29T07:13:18.512Z,16.30
2022-11-29T07:16:21.300Z,16.83
2022-11-29T07:19:08.134Z,17.35
2022-11-29T07:21:49.204Z,15.93
2022-11-29T07:24:37.686Z,15.23
2022-11-29T07:27:12.820Z,15.60
2022-11-29T07:30:04.875Z,17.63
2022-11-29T07:32:50.362Z,18.35
2022-11-29T07:35:29.649Z,16.52
2022-11-29T07:38:20.638Z,18.15
2022-11-29T07:41:12.235Z,16.90
2022-11-29T07:43:51.866Z,17.08
2022-11-29T07:46:18.457Z,16.15
2022-11-29T07:48:44.824Z,17.38
2022-11-29T07:51:11.296Z,17.40
2022-11-29T07:53:42.275Z,17.70
2022-11-29T07:56:12.541Z,18.30
2022-11-29T07:58:39.676Z,17.38
2022-11-29T08:01:06.252Z,17.60
2022-11-29T08:03:35.265Z,16.15
2022-11-29T08:06:03.770Z,18.30
2022-11-29T08:08:30.182Z,17.50
2022-11-29T08:10:56.510Z,16.92
2022-11-29T08:13:23.066Z,17.80
2022-11-29T08:15:49.506Z,17.83
2022-11-29T08:18:16.190Z,14.93
2022-11-29T08:20:42.955Z,16.13
2022-11-29T08:23:12.551Z,16.80
2022-11-29T08:25:39.681Z,16.35
2022-11-29T08:28:06.155Z,15.43
2022-11-29T08:30:32.596Z,13.35
2022-11-29T08:32:58.890Z,15.63
2022-11-29T08:35:25.486Z,15.23
2022-11-29T08:37:52.212Z,13.00
2022-11-29T08:40:18.628Z,13.13
2022-11-29T08:42:45.037Z,12.27
2022-11-29T08:45:12.312Z,13.50
2022-11-29T08:47:40.947Z,13.60
2022-11-29T08:50:15.881Z,13.20
2022-11-29T08:53:06.467Z,13.60
2022-11-29T08:55:39.781Z,12.95
2022-11-29T08:58:09.354Z,12.65
2022-11-29T09:00:36.422Z,11.60
2022-11-29T09:03:23.353Z,12.70
2022-11-29T09:05:50.055Z,12.50
2022-11-29T09:08:16.439Z,12.63
2022-11-29T09:10:43.202Z,14.15
2022-11-29T09:13:10.842Z,13.60
2022-11-29T09:15:38.748Z,13.98
2022-11-29T09:18:05.783Z,12.68
2022-11-29T09:20:33.422Z,12.45
2022-11-29T09:23:00.251Z,13.05
2022-11-29T09:25:27.276Z,12.63
2022-11-29T09:27:57.414Z,13.23
2022-11-29T09:30:24.005Z,12.63
2022-11-29T09:32:50.581Z,12.50
2022-11-29T09:35:17.405Z,12.05
2022-11-29T09:37:43.761Z,11.90
2022-11-29T09:40:27.520Z,10.55
2022-11-29T09:43:07.414Z,12.18
2022-11-29T09:45:41.357Z,11.43
2022-11-29T09:48:25.862Z,11.27
2022-11-29T09:51:02.274Z,10.63
2022-11-29T09:53:37.981Z,11.95
2022-11-29T09:56:33.140Z,11.00
2022-11-29T09:59:21.658Z,12.00
2022-11-29T10:02:19.703Z,11.32
2022-11-29T10:04:56.983Z,12.57
2022-11-29T10:07:34.669Z,11.65
2022-11-29T10:10:14.283Z,13.15
2022-11-29T10:12:50.127Z,12.32
2022-11-29T10:15:22.769Z,13.02
2022-11-29T10:18:10.918Z,12.73
2022-11-29T10:20:43.552Z,12.63
2022-11-29T10:23:24.367Z,14.57
2022-11-29T10:25:56.354Z,13.32
2022-11-29T10:28:27.066Z,13.75
2022-11-29T10:30:55.513Z,13.32
2022-11-29T10:33:28.240Z,14.00
2022-11-29T10:36:05.214Z,11.80
2022-11-29T10:38:32.099Z,12.77
2022-11-29T10:41:04.604Z,14.70
2022-11-29T10:43:31.345Z,14.40
2022-11-29T10:45:58.610Z,14.70
2022-11-29T10:48:31.655Z,12.90
2022-11-29T10:50:58.641Z,11.88
2022-11-29T10:53:35.556Z,11.27
2022-11-29T10:56:22.312Z,10.63
2022-11-29T10:59:04.995Z,12.30
2022-11-29T11:01:33.825Z,12.38
2022-11-29T11:04:03.124Z,11.43
2022-11-29T11:06:56.145Z,11.85
2022-11-29T11:09:26.600Z,11.73
2022-11-29T11:11:57.242Z,11.52
2022-11-29T11:14:37.831Z,12.10
2022-11-29T11:17:21.234Z,11.43
2022-11-29T11:19:56.863Z,13.18
2022-11-29T11:22:24.950Z,13.35
2022-11-29T11:25:07.067Z,12.10
2022-11-29T11:27:42.016Z,13.73
2022-11-29T11:30:23.355Z,11.23
2022-11-29T11:33:22.304Z,12.15
2022-11-29T11:36:03.952Z,11.95
2022-11-29T11:38:30.669Z,12.43
2022-11-29T11:41:02.978Z,12.30
2022-11-29T11:43:29.556Z,12.88
2022-11-29T11:45:56.020Z,11.70
2022-11-29T11:48:22.746Z,12.23
2022-11-29T11:50:54.682Z,11.30
2022-11-29T11:53:27.881Z,13.15
2022-11-29T11:56:00.646Z,12.50
2022-11-29T11:58:29.813Z,12.57
2022-11-29T12:01:14.049Z,12.55
2022-11-29T12:03:52.597Z,11.20
2022-11-29T12:06:43.005Z,10.95
2022-11-29T12:09:09.822Z,10.98
2022-11-29T12:11:47.190Z,10.55
2022-11-29T12:14:23.900Z,11.30
2022-11-29T12:16:58.762Z,11.77
2022-11-29T12:19:32.246Z,12.23
2022-11-29T12:22:06.679Z,11.48
2022-11-29T12:24:38.983Z,11.43
2022-11-29T12:27:06.005Z,12.13
2022-11-29T12:29:34.211Z,12.07
2022-11-29T12:32:38.092Z,10.25
2022-11-29T12:35:36.875Z,11.15
2022-11-29T12:38:22.113Z,10.95
2022-11-29T12:41:12.709Z,11.15
2022-11-29T12:44:03.538Z,10.02
2022-11-29T12:46:31.157Z,10.88
2022-11-29T12:49:06.997Z,11.00
2022-11-29T12:51:46.994Z,12.00
2022-11-29T12:54:34.035Z,11.32
2022-11-29T12:57:12.800Z,11.75
2022-11-29T13:00:05.284Z,10.65
2022-11-29T13:02:49.796Z,11.43
2022-11-29T13:05:33.626Z,11.68
2022-11-29T13:08:40.870Z,12.02
2022-11-29T13:11:25.560Z,12.65
2022-11-29T13:14:13.834Z,11.90
2022-11-29T13:17:02.189Z,12.45
2022-11-29T13:19:44.197Z,11.48
2022-11-29T13:22:39.526Z,11.90
2022-11-29T13:25:18.749Z,10.50
2022-11-29T13:27:56.778Z,12.07
2022-11-29T13:30:23.171Z,11.32
2022-11-29T13:33:14.993Z,11.63
2022-11-29T13:35:53.766Z,11.52
2022-11-29T13:38:26.394Z,11.27
2022-11-29T13:41:04.578Z,11.35
2022-11-29T13:43:41.213Z,12.93
2022-11-29T13:46:28.008Z,13.05
2022-11-29T13:48:54.687Z,10.95
2022-11-29T13:51:22.756Z,13.20
2022-11-29T13:53:49.572Z,12.30
2022-11-29T13:56:48.375Z,15.30
2022-11-29T13:59:29.396Z,13.98
2022-11-29T14:01:58.199Z,13.13
2022-11-29T14:04:28.879Z,13.10
2022-11-29T14:07:11.297Z,12.57
2022-11-29T14:09:44.963Z,13.48
2022-11-29T14:12:41.356Z,12.82
2022-11-29T14:18:03.455Z,12.30
2022-11-29T14:20:29.781Z,14.32
2022-11-29T14:23:04.804Z,15.02
2022-11-29T14:25:54.959Z,14.10
2022-11-29T14:28:21.314Z,14.10
2022-11-29T14:30:52.998Z,15.90
2022-11-29T14:33:23.708Z,14.48
2022-11-29T14:36:02.972Z,14.32
2022-11-29T14:39:04.293Z,15.65
2022-11-29T14:41:49.278Z,15.15
2022-11-29T14:44:25.949Z,15.85
2022-11-29T14:47:01.822Z,13.77
2022-11-29T14:49:28.933Z,14.10
2022-11-29T14:52:08.691Z,14.20
2022-11-29T14:54:36.913Z,14.73
2022-11-29T14:57:40.768Z,16.73
2022-11-29T15:00:12.518Z,15.00
2022-11-29T15:02:44.304Z,15.13
2022-11-29T15:05:32.026Z,16.80
2022-11-29T15:08:15.019Z,15.60
2022-11-29T15:10:47.955Z,16.10
2022-11-29T15:13:23.122Z,15.63
2022-11-29T15:15:55.492Z,16.70
2022-11-29T15:18:53.299Z,14.57
2022-11-29T15:21:45.087Z,15.45
2022-11-29T15:24:13.824Z,16.17
2022-11-29T15:26:58.089Z,15.15
2022-11-29T15:29:25.028Z,15.23
2022-11-29T15:31:57.397Z,17.17
2022-11-29T15:34:32.373Z,18.15
2022-11-29T15:36:59.893Z,16.05
2022-11-29T15:39:27.819Z,18.25
2022-11-29T15:41:59.815Z,18.25
2022-11-29T15:44:26.226Z,18.83
2022-11-29T15:46:52.559Z,16.55
2022-11-29T15:49:27.029Z,16.33
2022-11-29T15:52:00.880Z,17.80
2022-11-29T15:54:38.537Z,18.20
2022-11-29T15:57:10.767Z,16.90
2022-11-29T15:59:47.748Z,16.73
2022-11-29T16:02:35.640Z,17.70
2022-11-29T16:05:16.424Z,16.48
2022-11-29T16:07:45.508Z,17.60
2022-11-29T16:10:18.817Z,17.58
2022-11-29T16:13:31.017Z,16.15
2022-11-29T16:16:12.457Z,16.08
2022-11-29T16:18:40.960Z,16.25
2022-11-29T16:21:20.397Z,16.30
2022-11-29T16:23:46.788Z,16.33
2022-11-29T16:26:15.819Z,16.05
2022-11-29T16:28:45.125Z,16.63
2022-11-29T16:31:18.088Z,15.20
2022-11-29T16:33:47.325Z,15.73
2022-11-29T16:36:26.443Z,15.30
2022-11-29T16:38:57.508Z,16.65
2022-11-29T16:41:32.831Z,17.20
2022-11-29T16:44:02.993Z,17.80
2022-11-29T16:46:32.158Z,16.35
2022-11-29T16:49:03.596Z,19.00
2022-11-29T16:51:45.657Z,18.40
2022-11-29T16:54:27.828Z,18.40
2022-11-29T16:56:56.237Z,18.08
2022-11-29T16:59:27.917Z,17.80
2022-11-29T17:01:56.234Z,16.55
2022-11-29T17:04:24.092Z,16.75
2022-11-29T17:06:55.731Z,17.52
2022-11-29T17:09:28.291Z,15.90
2022-11-29T17:11:55.794Z,15.68
2022-11-29T17:14:22.498Z,16.23
2022-11-29T17:16:52.054Z,15.30
2022-11-29T17:19:20.565Z,17.55
2022-11-29T17:21:47.523Z,15.38
2022-11-29T17:24:16.357Z,16.10
2022-11-29T17:26:43.524Z,18.65
2022-11-29T17:29:11.460Z,18.65
2022-11-29T17:31:38.436Z,15.63
2022-11-29T17:34:05.364Z,18.20
2022-11-29T17:36:31.988Z,16.83
2022-11-29T17:39:00.229Z,19.23
2022-11-29T17:41:27.237Z,19.55
2022-11-29T17:43:55.475Z,20.88
2022-11-29T17:46:24.397Z,19.10
2022-11-29T17:48:52.103Z,17.85
2022-11-29T17:51:50.013Z,18.58
2022-11-29T17:54:07.997Z,17.00
2022-11-29T17:56:34.626Z,16.65
2022-11-29T17:59:03.364Z,16.67
2022-11-29T18:01:33.547Z,16.42
2022-11-29T18:04:01.872Z,17.48
2022-11-29T18:06:34.805Z,16.02
2022-11-29T18:09:02.752Z,17.10
2022-11-29T18:11:45.245Z,15.63
2022-11-29T18:14:15.944Z,17.63
2022-11-29T18:16:42.821Z,17.38
2022-11-29T18:19:12.542Z,19.40
2022-11-29T18:21:39.302Z,22.70
2022-11-29T18:24:06.642Z,21.08
2022-11-29T18:26:35.063Z,19.80
2022-11-29T18:29:01.491Z,19.75
2022-11-29T18:31:36.671Z,18.90
2022-11-29T18:34:07.059Z,18.70
2022-11-29T18:36:37.435Z,17.73
2022-11-29T18:39:07.213Z,18.58
2022-11-29T18:41:33.514Z,18.90
2022-11-29T18:44:05.803Z,17.17
2022-11-29T18:46:32.998Z,17.65
2022-11-29T18:49:03.531Z,15.75
2022-11-29T18:51:31.027Z,15.48
2022-11-29T18:53:58.624Z,15.55
2022-11-29T18:56:27.955Z,15.52
2022-11-29T18:59:01.551Z,14.98
2022-11-29T19:01:30.911Z,16.33
2022-11-29T19:03:59.242Z,23.48
2022-11-29T19:06:38.576Z,20.08
2022-11-29T19:09:11.606Z,18.40
2022-11-29T19:11:38.437Z,14.90
2022-11-29T19:14:11.014Z,13.57
2022-11-29T19:16:39.265Z,13.60
2022-11-29T19:19:05.705Z,13.85
2022-11-29T19:21:34.439Z,13.80
2022-11-29T19:24:03.256Z,13.27
2022-11-29T19:26:31.262Z,14.07
2022-11-29T19:28:59.158Z,15.68
2022-11-29T19:31:27.013Z,15.85
2022-11-29T19:33:54.519Z,17.50
2022-11-29T19:36:28.799Z,15.10
2022-11-29T19:38:56.045Z,16.88
2022-11-29T19:41:28.596Z,17.60
2022-11-29T19:44:00.602Z,17.13
2022-11-29T19:46:30.715Z,16.20
2022-11-29T19:48:59.223Z,19.25
2022-11-29T19:51:27.000Z,21.80
2022-11-29T19:53:56.404Z,20.60
2022-11-29T19:56:23.493Z,19.60
2022-11-29T19:58:50.634Z,16.63
2022-11-29T20:01:20.136Z,18.33
2022-11-29T20:03:46.544Z,23.70
2022-11-29T20:06:15.748Z,23.48
2022-11-29T20:08:42.746Z,24.40
2022-11-29T20:11:15.671Z,21.20
2022-11-29T20:13:44.741Z,22.58
2022-11-29T20:16:14.574Z,22.48
2022-11-29T20:18:48.762Z,21.85
2022-11-29T20:21:21.840Z,22.60
2022-11-29T20:23:48.546Z,24.17
2022-11-29T20:26:19.574Z,23.15
2022-11-29T20:28:47.305Z,24.05
2022-11-29T20:31:17.168Z,23.95
2022-11-29T20:33:45.666Z,25.05
2022-11-29T20:36:30.562Z,22.48
2022-11-29T20:39:07.194Z,21.48
2022-11-29T20:41:39.356Z,21.70
2022-11-29T20:44:06.045Z,19.83
2022-11-29T20:46:32.621Z,20.73
2022-11-29T20:49:04.706Z,22.65
2022-11-29T20:51:41.112Z,22.83
2022-11-29T20:54:10.876Z,21.30
2022-11-29T20:56:37.238Z,22.70
2022-11-29T20:59:03.619Z,23.58
2022-11-29T21:01:29.981Z,22.63
2022-11-29T21:03:56.430Z,21.42
2022-11-29T21:06:22.789Z,21.58
2022-11-29T21:08:49.613Z,20.90
2022-11-29T21:11:16.260Z,19.58
2022-11-29T21:13:42.665Z,18.40
2022-11-29T21:16:11.535Z,15.75
2022-11-29T21:18:38.153Z,17.25
2022-11-29T21:21:24.972Z,15.95
2022-11-29T21:24:03.609Z,16.13
2022-11-29T21:26:41.931Z,16.55
2022-11-29T21:29:23.090Z,16.63
2022-11-29T21:31:52.448Z,20.45
2022-11-29T21:34:19.502Z,20.23
2022-11-29T21:36:52.247Z,22.27
2022-11-29T21:39:18.787Z,19.75
2022-11-29T21:41:45.191Z,18.58
2022-11-29T21:44:11.505Z,14.60
2022-11-29T21:46:37.864Z,13.63
2022-11-29T21:49:04.684Z,12.48
2022-11-29T21:51:31.078Z,13.18
2022-11-29T21:53:57.383Z,13.15
2022-11-29T21:56:23.803Z,13.25
2022-11-29T21:58:50.122Z,12.93
2022-11-29T22:01:19.005Z,12.45
2022-11-29T22:03:45.850Z,12.75
2022-11-29T22:06:14.905Z,12.88
2022-11-29T22:08:42.261Z,13.27
2022-11-29T22:11:11.418Z,13.75
2022-11-29T22:14:00.862Z,15.13
2022-11-29T22:16:28.561Z,15.65
2022-11-29T22:18:54.900Z,16.75
2022-11-29T22:21:22.297Z,16.83
2022-11-29T22:23:48.598Z,15.98
2022-11-29T22:26:14.918Z,17.25
2022-11-29T22:28:41.288Z,17.00
2022-11-29T22:31:10.253Z,18.23
2022-11-29T22:33:37.432Z,17.38
2022-11-29T22:36:10.010Z,17.13
2022-11-29T22:38:37.092Z,17.23
2022-11-29T22:41:09.390Z,18.15
2022-11-29T22:43:37.010Z,15.82
2022-11-29T22:46:18.938Z,15.40
2022-11-29T22:48:47.629Z,16.15
2022-11-29T22:51:19.439Z,15.57
2022-11-29T22:53:50.960Z,14.60
2022-11-29T22:56:18.058Z,15.57
2022-11-29T22:58:45.113Z,15.63
2022-11-29T23:01:17.894Z,14.27
2022-11-29T23:03:48.345Z,16.13
2022-11-29T23:06:19.598Z,16.30
2022-11-29T23:08:47.894Z,14.30
2022-11-29T23:11:17.797Z,15.02
2022-11-29T23:13:44.760Z,13.93
2022-11-29T23:16:14.554Z,13.55
2022-11-29T23:18:42.270Z,13.82
2022-11-29T23:21:10.400Z,14.77
2022-11-29T23:23:37.419Z,15.00
2022-11-29T23:26:04.878Z,13.75
2022-11-29T23:28:31.770Z,14.48
2022-11-29T23:30:58.748Z,16.70
2022-11-29T23:33:26.446Z,16.23
2022-11-29T23:36:00.657Z,16.08
2022-11-29T23:38:27.112Z,14.98
2022-11-29T23:40:53.561Z,15.80
2022-11-29T23:43:20.520Z,14.35
2022-11-29T23:45:46.872Z,14.60
2022-11-29T23:48:13.424Z,14.90
2022-11-29T23:50:40.687Z,14.25
2022-11-29T23:53:07.046Z,13.65
2022-11-29T23:55:33.398Z,13.93
2022-11-29T23:58:03.202Z,13.38
